Genesis II — EILJ9 — position and weather

sailwx.info

Track history (hours):
 
Tides and Currents Weather Stations Pressure Air Temp Water Temp Dewpoint Dewpoint Depression Visibility Wind Speed Wind Dir Waves Ship Positions

Genesis II

Last reported at 2014-Oct-31 02:33 UTC. Time now 2014-Oct-31 16:23 UTC.
Position N 48°18' W 006°57'.

Length 53 m; draft 6.6 m.

Type: Fishing. MMSI: 250002424.

Date/timePositionNaut miles runAvg speedWind from/ knotsBaromVisibWave heightAir tempDewpointWater temp
2014-Oct-31 02:33N 48°18' W 006°57'  
2014-Oct-22 21:26N 51°25' W 010°11'4610.9
2014-Oct-22 17:11N 52°07' W 010°43'710.9
2014-Oct-22 16:33N 52°14' W 010°40'5810.5
2014-Oct-22 11:04N 53°11' W 010°31'610.8
2014-Oct-22 10:32N 53°17' W 010°31'1110.8
2014-Oct-22 09:33N 53°28' W 010°29'10 9.8
2014-Oct-22 08:33N 53°37' W 010°27'9 9.4
2014-Oct-22 07:33N 53°47' W 010°25'9 9.4
2014-Oct-22 06:33N 53°56' W 010°24'9 8.9
2014-Oct-22 05:33N 54°05' W 010°21'9 8.8
2014-Oct-22 04:33N 54°12' W 010°12'9 8.7
2014-Oct-22 03:33N 54°19' W 010°03'45 9.1
2014-Oct-21 22:33N 54°32' W 008°48'9 9.4
2014-Oct-21 21:33N 54°35' W 008°32'5 4.6
2014-Oct-21 20:33N 54°38' W 008°26'0 0.0
2014-Oct-21 19:33N 54°38' W 008°26'0 0.0
2014-Oct-21 18:33N 54°38' W 008°26'0 0.0
2014-Oct-21 17:33N 54°38' W 008°26'0 0.0
2014-Oct-21 16:33N 54°38' W 008°26'0 0.0
2014-Oct-21 15:33N 54°38' W 008°26'0 0.0
2014-Oct-21 14:33N 54°38' W 008°26'0 0.0
2014-Oct-21 13:33N 54°38' W 008°26'0 0.0
2014-Oct-21 12:33N 54°38' W 008°26'0 0.0
2014-Oct-21 11:33N 54°38' W 008°26'0 0.0
2014-Oct-21 10:33N 54°38' W 008°26'0 0.0
2014-Oct-21 09:33N 54°38' W 008°26'0 0.0
2014-Oct-21 08:33N 54°38' W 008°26'0 0.0
2014-Oct-21 07:33N 54°38' W 008°26'0 0.0
2014-Oct-21 06:33N 54°38' W 008°26'0 0.0
2014-Oct-21 05:33N 54°38' W 008°26'0 0.0
2014-Oct-21 04:33N 54°38' W 008°26'0 0.0
2014-Oct-21 03:33N 54°38' W 008°26'  
Track history (hours):
 
Tides and Currents Weather Stations Pressure Air Temp Water Temp Dewpoint Dewpoint Depression Visibility Wind Speed Wind Dir Waves Ship Positions

Genesis II

Last reported at 2014-Oct-31 02:33 UTC. Time now 2014-Oct-31 16:23 UTC.
Position N 48°18' W 006°57'.

Length 53 m; draft 6.6 m.

Type: Fishing. MMSI: 250002424.

Date/timePositionNaut miles runAvg speedWind from/ knotsBaromVisibWave heightAir tempDewpointWater temp
2014-Oct-31 02:33N 48°18' W 006°57'  
2014-Oct-22 21:26N 51°25' W 010°11'4610.9
2014-Oct-22 17:11N 52°07' W 010°43'710.9
2014-Oct-22 16:33N 52°14' W 010°40'5810.5
2014-Oct-22 11:04N 53°11' W 010°31'610.8
2014-Oct-22 10:32N 53°17' W 010°31'1110.8
2014-Oct-22 09:33N 53°28' W 010°29'10 9.8
2014-Oct-22 08:33N 53°37' W 010°27'9 9.4
2014-Oct-22 07:33N 53°47' W 010°25'9 9.4
2014-Oct-22 06:33N 53°56' W 010°24'9 8.9
2014-Oct-22 05:33N 54°05' W 010°21'9 8.8
2014-Oct-22 04:33N 54°12' W 010°12'9 8.7
2014-Oct-22 03:33N 54°19' W 010°03'45 9.1
2014-Oct-21 22:33N 54°32' W 008°48'9 9.4
2014-Oct-21 21:33N 54°35' W 008°32'5 4.6
2014-Oct-21 20:33N 54°38' W 008°26'0 0.0
2014-Oct-21 19:33N 54°38' W 008°26'0 0.0
2014-Oct-21 18:33N 54°38' W 008°26'0 0.0
2014-Oct-21 17:33N 54°38' W 008°26'0 0.0
2014-Oct-21 16:33N 54°38' W 008°26'0 0.0
2014-Oct-21 15:33N 54°38' W 008°26'0 0.0
2014-Oct-21 14:33N 54°38' W 008°26'0 0.0
2014-Oct-21 13:33N 54°38' W 008°26'0 0.0
2014-Oct-21 12:33N 54°38' W 008°26'0 0.0
2014-Oct-21 11:33N 54°38' W 008°26'0 0.0
2014-Oct-21 10:33N 54°38' W 008°26'0 0.0
2014-Oct-21 09:33N 54°38' W 008°26'0 0.0
2014-Oct-21 08:33N 54°38' W 008°26'0 0.0
2014-Oct-21 07:33N 54°38' W 008°26'0 0.0
2014-Oct-21 06:33N 54°38' W 008°26'0 0.0
2014-Oct-21 05:33N 54°38' W 008°26'0 0.0
2014-Oct-21 04:33N 54°38' W 008°26'0 0.0
2014-Oct-21 03:33N 54°38' W 008°26'  

Dump ship's entire track history